FlightSource - Aviation Photo Database

World Wide Airport Lookup


Search by ICAO
Or
Search by City

FlightSource.ca - Aviation Photo Database - Las Vegas Municipal Airport Information
Airport Identification
Name: Las Vegas Municipal Airport
ICAO: KLVS
IATA:
Airport Location
City: Las Vegas
Region: NM
Country: United States
Continent: North America
Latitude: 35.6542
Longitude: -105.142
Airport Information
Type: Medium Airport
Elevation: 6877 Feet ASL
Flight Status: KLVS
More Info: KLVS
Airport Weather    
Metar: KLVS 240653Z AUTO 16011KT 10SM CLR 06/M02 A2995 RMK AO2 SLP061 T00611017 402281022
TAF:


Advertisement